.
WxDataArchive / Data Records for 2011-10-17
2011-10-16 October 2011 2011-10-18

Data Records for Monday, 17 October 2011

Time	Temp	Chill	HIndex	Humid	Dewpt	 Wind 	HiWind	WindDir	Rain 	Barom 
-----	----	-----	------	-----	-----	------	------	-------	-----	----- 
00:00	48.2	48.2	48.2	68	38.1	0	2	270	0.00	29.829 
00:05	48.0	48.0	48.0	68	37.9	0	2	270	0.00	29.829 
00:10	47.9	47.9	47.9	68	37.9	1	3	270	0.00	29.829 
00:15	47.9	47.9	47.9	68	37.9	0	3	270	0.00	29.830 
00:20	47.7	47.7	47.7	68	37.7	0	3	270	0.00	29.830 
00:25	47.7	47.7	47.7	68	37.7	0	2	270	0.00	29.830 
00:30	47.7	47.7	47.7	68	37.7	1	4	270	0.00	29.830 
00:35	47.7	47.7	47.7	68	37.7	0	2	270	0.00	29.830 
00:40	47.6	47.6	47.6	68	37.6	0	2	270	0.00	29.830 
00:45	47.4	47.4	47.4	69	37.7	0	2	270	0.00	29.829 
00:50	47.3	47.3	47.3	69	37.7	0	2	270	0.00	29.829 
00:55	47.0	47.0	47.0	69	37.4	1	3	270	0.00	29.829 
01:00	46.8	46.8	46.8	69	37.2	0	2	270	0.00	29.829 
01:05	46.8	46.8	46.8	69	37.2	1	3	270	0.00	29.829 
01:10	46.7	46.7	46.7	69	37.1	1	3	270	0.00	29.829 
01:15	46.5	46.5	46.5	69	36.9	1	3	270	0.00	29.829 
01:20	46.7	46.7	46.7	69	37.1	1	4	270	0.00	29.829 
01:25	46.5	46.5	46.5	69	36.9	1	3	270	0.00	29.829 
01:30	46.5	46.5	46.5	69	36.9	1	4	270	0.00	29.828 
01:35	46.4	46.4	46.4	69	36.8	0	2	270	0.00	29.828 
01:40	46.2	46.2	46.2	69	36.6	0	2	270	0.00	29.828 
01:45	46.1	46.1	46.1	69	36.5	1	2	270	0.00	29.829 
01:50	46.0	46.0	46.0	69	36.4	0	2	270	0.00	29.829 
01:55	46.0	46.0	46.0	69	36.4	1	3	270	0.00	29.829 
02:00	45.8	45.8	45.8	69	36.2	0	1	270	0.00	29.827 
02:05	45.7	45.7	45.7	70	36.5	0	2	270	0.00	29.827 
02:10	45.7	45.7	45.7	69	36.1	1	3	270	0.00	29.827 
02:15	45.7	45.7	45.7	69	36.1	0	1	270	0.00	29.829 
02:20	45.5	45.5	45.5	70	36.3	0	1	270	0.00	29.829 
02:25	45.4	45.4	45.4	70	36.2	0	2	270	0.00	29.829 
02:30	45.2	45.2	45.2	70	36.0	0	1	270	0.00	29.833 
02:35	45.2	45.2	45.2	70	36.0	0	1	270	0.00	29.833 
02:40	45.2	45.2	45.2	70	36.0	0	1	270	0.00	29.833 
02:45	45.1	45.1	45.1	70	35.9	0	1	270	0.00	29.834 
02:50	45.1	45.1	45.1	70	35.9	0	2	270	0.00	29.834 
02:55	45.1	45.1	45.1	70	35.9	0	2	270	0.00	29.834 
03:00	44.9	44.9	44.9	70	35.7	0	2	270	0.00	29.834 
03:05	44.8	44.8	44.8	70	35.6	0	1	270	0.00	29.834 
03:10	44.6	44.6	44.6	71	35.8	0	1	270	0.00	29.834 
03:15	44.5	44.5	44.5	71	35.7	0	3	270	0.00	29.832 
03:20	44.2	44.2	44.2	72	35.8	0	1	270	0.00	29.832 
03:25	44.1	44.1	44.1	72	35.7	0	1	270	0.00	29.832 
03:30	43.9	43.9	43.9	72	35.5	0	1	270	0.00	29.832 
03:35	43.8	43.8	43.8	72	35.4	0	3	270	0.00	29.832 
03:40	43.6	43.6	43.6	72	35.2	0	1	270	0.00	29.832 
03:45	43.6	43.6	43.6	72	35.2	0	1	270	0.00	29.830 
03:50	43.5	43.5	43.5	71	34.7	0	1	270	0.00	29.830 
03:55	43.3	43.3	43.3	71	34.5	0	1	270	0.00	29.830 
04:00	43.3	43.3	43.3	71	34.5	0	0	---	0.00	29.832 
04:05	43.2	43.2	43.2	71	34.4	0	0	---	0.00	29.832 
04:10	43.2	43.2	43.2	71	34.4	0	1	270	0.00	29.832 
04:15	43.2	43.2	43.2	70	34.1	0	1	270	0.00	29.827 
04:20	43.3	43.3	43.3	70	34.2	0	2	270	0.00	29.827 
04:25	43.2	43.2	43.2	69	33.7	0	0	---	0.00	29.827 
04:30	43.2	43.2	43.2	69	33.7	0	1	270	0.00	29.826 
04:35	43.1	43.1	43.1	70	34.0	0	1	270	0.00	29.826 
04:40	43.1	43.1	43.1	69	33.6	0	1	270	0.00	29.826 
04:45	43.1	43.1	43.1	70	34.0	0	0	---	0.00	29.821 
04:50	42.9	42.9	42.9	70	33.8	0	1	270	0.00	29.821 
04:55	42.8	42.8	42.8	70	33.7	0	1	270	0.00	29.821 
05:00	42.8	42.8	42.8	70	33.7	0	1	270	0.00	29.819 
05:05	42.6	42.6	42.6	70	33.5	0	1	270	0.00	29.819 
05:10	42.5	42.5	42.5	70	33.4	0	1	270	0.00	29.819 
05:15	42.3	42.3	42.3	71	33.6	0	1	270	0.00	29.823 
05:20	42.3	42.3	42.3	71	33.6	0	2	270	0.00	29.823 
05:25	42.2	42.2	42.2	70	33.1	0	1	270	0.00	29.823 
05:30	42.2	42.2	42.2	70	33.1	0	1	270	0.00	29.821 
05:35	42.1	42.1	42.1	71	33.4	0	1	270	0.00	29.821 
05:40	42.1	42.1	42.1	71	33.4	0	1	270	0.00	29.821 
05:45	42.1	42.1	42.1	70	33.0	0	1	270	0.00	29.826 
05:50	42.1	42.1	42.1	70	33.0	0	1	270	0.00	29.826 
05:55	42.2	42.2	42.2	70	33.1	0	1	270	0.00	29.826 
06:00	42.1	42.1	42.1	70	33.0	0	0	---	0.00	29.831 
06:05	41.9	41.9	41.9	70	32.8	0	1	270	0.00	29.831 
06:10	41.8	41.8	41.8	70	32.7	0	0	---	0.00	29.831 
06:15	41.8	41.8	41.8	70	32.7	0	0	---	0.00	29.834 
06:20	41.6	41.6	41.6	70	32.6	0	1	270	0.00	29.834 
06:25	41.6	41.6	41.6	70	32.6	0	1	270	0.00	29.834 
06:30	41.6	41.6	41.6	70	32.6	0	1	270	0.00	29.834 
06:35	41.5	41.5	41.5	70	32.5	0	1	270	0.00	29.834 
06:40	41.5	41.5	41.5	70	32.5	0	1	270	0.00	29.834 
06:45	41.5	41.5	41.5	70	32.5	0	1	270	0.00	29.832 
06:50	41.5	41.5	41.5	70	32.5	0	1	270	0.00	29.832 
06:55	41.3	41.3	41.3	70	32.3	0	1	270	0.00	29.832 
07:00	41.3	41.3	41.3	70	32.3	0	1	270	0.00	29.836 
07:05	41.2	41.2	41.2	70	32.2	0	1	270	0.00	29.836 
07:10	41.2	41.2	41.2	70	32.2	0	1	270	0.00	29.836 
07:15	41.2	41.2	41.2	70	32.2	0	1	270	0.00	29.838 
07:20	41.2	41.2	41.2	70	32.2	0	2	270	0.00	29.838 
07:25	41.2	41.2	41.2	70	32.2	0	2	270	0.00	29.838 
07:30	41.2	41.2	41.2	70	32.2	0	1	270	0.00	29.840 
07:35	41.1	41.1	41.1	70	32.1	0	1	270	0.00	29.840 
07:40	41.1	41.1	41.1	70	32.1	0	2	270	0.00	29.840 
07:45	41.1	41.1	41.1	70	32.1	0	1	270	0.00	29.841 
07:50	40.9	40.9	40.9	70	31.9	0	1	270	0.00	29.841 
07:55	40.9	40.9	40.9	71	32.2	0	2	270	0.00	29.841 
08:00	40.8	40.8	40.8	71	32.1	0	3	270	0.00	29.842 
08:05	40.9	40.9	40.9	71	32.2	0	2	270	0.00	29.842 
08:10	41.1	41.1	41.1	71	32.4	0	4	270	0.00	29.842 
08:15	41.3	41.3	41.3	70	32.3	1	4	248	0.00	29.844 
08:20	41.5	41.5	41.5	69	32.1	1	4	270	0.00	29.844 
08:25	41.6	41.6	41.6	69	32.2	1	4	270	0.00	29.844 
08:30	41.9	41.9	41.9	69	32.5	1	5	270	0.00	29.842 
08:35	42.1	42.1	42.1	68	32.3	1	4	292	0.00	29.842 
08:40	42.2	42.2	42.2	68	32.4	1	4	270	0.00	29.842 
08:45	42.3	42.3	42.3	68	32.5	1	4	270	0.00	29.849 
08:50	42.5	42.5	42.5	67	32.3	1	3	270	0.00	29.849 
08:55	42.8	42.8	42.8	67	32.6	1	4	248	0.00	29.849 
09:00	42.8	42.8	42.8	67	32.6	1	4	248	0.00	29.854 
09:05	43.1	43.1	43.1	67	32.9	1	3	248	0.00	29.854 
09:10	43.2	43.2	43.2	66	32.6	1	4	248	0.00	29.854 
09:15	43.5	43.5	43.5	66	32.9	1	4	248	0.00	29.856 
09:20	43.6	43.6	43.6	65	32.6	1	5	248	0.00	29.856 
09:25	43.9	43.9	43.9	65	32.9	1	5	248	0.00	29.856 
09:30	44.2	44.2	44.2	65	33.2	1	4	248	0.00	29.857 
09:35	44.5	44.5	44.5	64	33.1	1	3	248	0.00	29.857 
09:40	44.8	44.8	44.8	63	33.0	2	5	270	0.00	29.857 
09:45	45.1	45.1	45.1	62	32.9	2	6	270	0.00	29.856 
09:50	45.4	45.4	45.4	62	33.2	1	5	248	0.00	29.856 
09:55	45.8	45.8	45.8	61	33.1	2	5	270	0.00	29.856 
10:00	46.1	46.1	46.1	60	33.0	2	5	270	0.00	29.854 
10:05	46.5	46.5	46.5	58	32.5	3	10	270	0.00	29.854 
10:10	47.0	47.0	47.0	57	32.6	2	5	270	0.00	29.854 
10:15	47.6	47.6	47.6	56	32.7	2	6	270	0.00	29.853 
10:20	48.0	48.0	48.0	55	32.6	2	6	270	0.00	29.853 
10:25	48.5	48.5	48.5	54	32.6	2	4	270	0.00	29.853 
10:30	48.9	48.9	48.9	54	33.0	2	4	270	0.00	29.851 
10:35	49.4	49.4	49.4	51	32.0	2	5	270	0.00	29.851 
10:40	49.5	49.5	49.5	50	31.6	3	5	270	0.00	29.851 
10:45	50.1	50.1	50.1	51	32.7	2	4	225	0.00	29.852 
10:50	50.4	50.4	50.4	48	31.5	3	6	270	0.00	29.852 
10:55	50.7	50.7	50.7	46	30.7	4	7	270	0.00	29.852 
11:00	51.0	51.0	51.0	46	31.0	3	7	270	0.00	29.847 
11:05	51.3	51.3	51.3	45	30.7	3	7	270	0.00	29.847 
11:10	51.7	51.7	51.7	46	31.6	3	6	270	0.00	29.847 
11:15	52.0	52.0	52.0	41	29.0	5	10	270	0.00	29.849 
11:20	52.5	52.5	52.5	41	29.5	3	7	270	0.00	29.849 
11:25	52.8	52.8	52.8	40	29.2	3	7	270	0.00	29.849 
11:30	53.2	53.2	53.2	40	29.5	3	7	248	0.00	29.845 
11:35	53.8	53.8	53.8	39	29.4	3	5	270	0.00	29.845 
11:40	54.1	54.1	54.1	35	27.1	3	9	270	0.00	29.845 
11:45	54.4	54.4	54.4	34	26.6	3	7	270	0.00	29.839 
11:50	54.5	54.5	54.5	34	26.7	5	11	270	0.00	29.839 
11:55	54.8	54.8	54.8	35	27.7	3	6	270	0.00	29.839 
12:00	55.1	55.1	55.1	33	26.5	4	10	270	0.00	29.840 
12:05	55.4	55.4	55.4	32	26.0	4	8	270	0.00	29.840 
12:10	55.6	55.6	55.6	29	23.9	4	11	292	0.00	29.840 
12:15	55.7	55.7	55.7	29	23.9	4	10	270	0.00	29.837 
12:20	56.0	56.0	56.0	30	25.0	4	6	270	0.00	29.837 
12:25	56.3	56.3	56.3	28	23.6	4	9	270	0.00	29.837 
12:30	56.6	56.6	56.6	29	24.7	4	10	270	0.00	29.833 
12:35	56.7	56.7	56.7	31	26.4	3	9	292	0.00	29.833 
12:40	57.3	57.3	57.3	27	23.6	3	6	292	0.00	29.833 
12:45	57.6	57.6	57.6	27	23.9	3	6	270	0.00	29.830 
12:50	57.8	57.8	57.8	30	26.6	3	6	270	0.00	29.830 
12:55	58.0	58.0	58.0	28	25.1	3	9	270	0.00	29.830 
13:00	58.1	58.1	58.1	28	25.2	2	5	270	0.00	29.828 
13:05	58.6	58.6	58.6	29	26.4	3	5	248	0.00	29.828 
13:10	58.7	58.7	58.7	27	24.8	3	8	292	0.00	29.828 
13:15	58.6	58.6	58.6	26	23.8	4	9	270	0.00	29.817 
13:20	58.4	58.4	58.4	28	25.4	4	9	270	0.00	29.817 
13:25	58.4	58.4	58.4	27	24.6	4	9	270	0.00	29.817 
13:30	58.9	58.9	58.9	28	25.9	3	5	270	0.00	29.816 
13:35	58.7	58.7	58.7	26	23.9	5	7	270	0.00	29.816 
13:40	58.6	58.6	58.6	26	23.8	5	10	270	0.00	29.816 
13:45	58.7	58.7	58.7	26	23.9	3	9	270	0.00	29.816 
13:50	58.6	58.6	58.6	27	24.7	3	8	248	0.00	29.816 
13:55	58.9	58.9	58.9	26	24.1	3	7	270	0.00	29.816 
14:00	59.0	59.0	59.0	26	24.2	5	10	270	0.00	29.810 
14:05	59.3	59.3	59.3	26	24.4	4	7	270	0.00	29.810 
14:10	59.6	59.6	59.6	27	25.6	4	7	270	0.00	29.810 
14:15	59.8	59.8	59.8	27	25.8	5	11	270	0.00	29.805 
14:20	59.9	59.9	59.9	25	24.0	4	9	248	0.00	29.805 
14:25	59.6	59.6	59.6	26	24.7	3	7	248	0.00	29.805 
14:30	59.9	59.9	59.9	27	25.8	2	4	248	0.00	29.803 
14:35	60.4	60.4	60.4	27	26.3	3	6	270	0.00	29.803 
14:40	60.7	60.7	60.7	26	25.6	3	10	270	0.00	29.803 
14:45	60.7	60.7	60.7	27	26.5	3	7	248	0.00	29.793 
14:50	60.7	60.7	60.7	27	26.5	2	6	270	0.00	29.793 
14:55	61.0	61.0	61.0	25	24.9	2	7	270	0.00	29.793 
15:00	61.0	61.0	61.0	25	24.9	3	8	270	0.00	29.797 
15:05	60.5	60.5	60.5	26	25.4	3	7	270	0.00	29.797 
15:10	60.7	60.7	60.7	26	25.6	3	7	270	0.00	29.797 
15:15	61.3	61.3	61.3	27	27.0	3	7	270	0.00	29.794 
15:20	61.6	61.6	61.6	25	25.4	4	8	270	0.00	29.794 
15:25	62.1	62.1	62.1	25	25.9	4	10	270	0.00	29.794 
15:30	62.1	62.1	62.1	25	25.9	3	9	270	0.00	29.785 
15:35	62.1	62.1	62.1	25	25.9	2	6	248	0.00	29.785 
15:40	62.0	62.0	62.0	25	25.8	2	6	248	0.00	29.785 
15:45	61.8	61.8	61.8	25	25.6	3	8	270	0.00	29.782 
15:50	62.1	62.1	62.1	25	25.9	3	6	270	0.00	29.782 
15:55	62.1	62.1	62.1	24	24.9	3	6	270	0.00	29.782 
16:00	61.5	61.5	61.5	25	25.4	3	6	270	0.00	29.783 
16:05	61.6	61.6	61.6	27	27.3	2	6	270	0.00	29.783 
16:10	62.0	62.0	62.0	26	26.7	3	7	270	0.00	29.783 
16:15	62.1	62.1	62.1	26	26.8	3	9	270	0.00	29.781 
16:20	61.6	61.6	61.6	25	25.4	3	9	270	0.00	29.781 
16:25	61.2	61.2	61.2	25	25.1	2	5	248	0.00	29.781 
16:30	61.3	61.3	61.3	26	26.1	3	8	270	0.00	29.782 
16:35	61.5	61.5	61.5	24	24.4	4	9	270	0.00	29.782 
16:40	61.5	61.5	61.5	24	24.4	3	7	270	0.00	29.782 
16:45	61.5	61.5	61.5	25	25.4	4	12	270	0.00	29.779 
16:50	61.3	61.3	61.3	25	25.2	3	8	270	0.00	29.779 
16:55	61.2	61.2	61.2	23	23.1	4	10	270	0.00	29.779 
17:00	60.7	60.7	60.7	23	22.7	4	7	270	0.00	29.780 
17:05	60.5	60.5	60.5	24	23.5	2	6	270	0.00	29.780 
17:10	60.4	60.4	60.4	25	24.4	2	5	270	0.00	29.780 
17:15	60.2	60.2	60.2	27	26.1	2	5	270	0.00	29.778 
17:20	60.1	60.1	60.1	25	24.2	2	5	270	0.00	29.778 
17:25	59.9	59.9	59.9	25	24.0	2	6	270	0.00	29.778 
17:30	59.9	59.9	59.9	25	24.0	1	5	270	0.00	29.779 
17:35	59.9	59.9	59.9	26	24.9	1	5	270	0.00	29.779 
17:40	59.8	59.8	59.8	28	26.6	1	5	270	0.00	29.779 
17:45	59.5	59.5	59.5	28	26.4	1	4	248	0.00	29.778 
17:50	58.9	58.9	58.9	28	25.9	2	6	270	0.00	29.778 
17:55	58.6	58.6	58.6	27	24.7	2	5	248	0.00	29.778 
18:00	58.3	58.3	58.3	27	24.5	2	6	270	0.00	29.788 
18:05	58.0	58.0	58.0	28	25.1	1	4	248	0.00	29.788 
18:10	57.8	57.8	57.8	27	24.0	1	6	248	0.00	29.788 
18:15	57.5	57.5	57.5	28	24.7	1	4	270	0.00	29.794 
18:20	57.5	57.5	57.5	29	25.5	1	5	270	0.00	29.794 
18:25	57.3	57.3	57.3	31	26.9	1	2	248	0.00	29.794 
18:30	57.2	57.2	57.2	32	27.6	1	5	248	0.00	29.802 
18:35	56.9	56.9	56.9	32	27.4	3	6	248	0.00	29.802 
18:40	56.7	56.7	56.7	33	27.9	2	7	270	0.00	29.802 
18:45	56.5	56.5	56.5	32	27.0	2	6	270	0.00	29.806 
18:50	56.3	56.3	56.3	32	26.8	1	4	248	0.00	29.806 
18:55	56.0	56.0	56.0	33	27.3	1	4	270	0.00	29.806 
19:00	55.7	55.7	55.7	32	26.3	2	6	270	0.00	29.809 
19:05	55.6	55.6	55.6	33	27.0	2	6	270	0.00	29.809 
19:10	55.3	55.3	55.3	33	26.7	2	5	270	0.00	29.809 
19:15	55.3	55.3	55.3	34	27.4	2	5	270	0.00	29.815 
19:20	55.1	55.1	55.1	35	27.9	2	6	248	0.00	29.815 
19:25	55.0	55.0	55.0	35	27.9	2	6	248	0.00	29.815 
19:30	55.0	55.0	55.0	36	28.5	2	4	270	0.00	29.820 
19:35	54.8	54.8	54.8	37	29.0	1	4	270	0.00	29.820 
19:40	54.8	54.8	54.8	37	29.0	1	4	270	0.00	29.820 
19:45	54.7	54.7	54.7	39	30.2	1	4	270	0.00	29.822 
19:50	54.7	54.7	54.7	39	30.2	1	4	248	0.00	29.822 
19:55	54.7	54.7	54.7	39	30.2	2	5	270	0.00	29.822 
20:00	54.7	54.7	54.7	39	30.2	2	5	270	0.00	29.822 
20:05	54.5	54.5	54.5	39	30.1	2	6	270	0.00	29.822 
20:10	54.5	54.5	54.5	40	30.7	2	5	270	0.00	29.822 
20:15	54.4	54.4	54.4	40	30.6	1	4	270	0.00	29.824 
20:20	54.2	54.2	54.2	40	30.4	2	5	270	0.00	29.824 
20:25	54.2	54.2	54.2	41	31.0	1	4	248	0.00	29.824 
20:30	54.1	54.1	54.1	41	30.9	1	4	270	0.00	29.828 
20:35	54.1	54.1	54.1	42	31.5	1	3	270	0.00	29.828 
20:40	54.1	54.1	54.1	41	30.9	2	4	270	0.00	29.828 
20:45	54.1	54.1	54.1	42	31.5	1	4	270	0.00	29.833 
20:50	54.1	54.1	54.1	42	31.5	1	4	270	0.00	29.833 
20:55	54.1	54.1	54.1	41	30.9	2	5	270	0.00	29.833 
21:00	54.1	54.1	54.1	41	30.9	1	6	270	0.00	29.833 
21:05	54.1	54.1	54.1	40	30.3	2	5	270	0.00	29.833 
21:10	54.1	54.1	54.1	40	30.3	2	5	292	0.00	29.833 
21:15	54.1	54.1	54.1	40	30.3	1	3	292	0.00	29.831 
21:20	53.9	53.9	53.9	39	29.5	2	5	270	0.00	29.831 
21:25	53.9	53.9	53.9	39	29.5	1	4	270	0.00	29.831 
21:30	53.9	53.9	53.9	39	29.5	1	3	292	0.00	29.832 
21:35	53.8	53.8	53.8	39	29.4	1	5	292	0.00	29.832 
21:40	53.8	53.8	53.8	40	30.1	1	3	292	0.00	29.832 
21:45	53.8	53.8	53.8	39	29.4	1	6	270	0.00	29.835 
21:50	53.6	53.6	53.6	39	29.3	1	4	270	0.00	29.835 
21:55	53.6	53.6	53.6	39	29.3	1	4	270	0.00	29.835 
22:00	53.6	53.6	53.6	39	29.3	2	4	270	0.00	29.837 
22:05	53.5	53.5	53.5	39	29.2	2	5	270	0.00	29.837 
22:10	53.5	53.5	53.5	39	29.2	1	3	270	0.00	29.837 
22:15	53.5	53.5	53.5	39	29.2	1	4	270	0.00	29.834 
22:20	53.3	53.3	53.3	39	29.0	0	2	270	0.00	29.834 
22:25	53.2	53.2	53.2	40	29.5	0	1	270	0.00	29.834 
22:30	53.1	53.1	53.1	39	28.8	1	4	270	0.00	29.841 
22:35	53.1	53.1	53.1	39	28.8	1	3	270	0.00	29.841 
22:40	53.1	53.1	53.1	39	28.8	1	3	270	0.00	29.841 
22:45	52.9	52.9	52.9	39	28.6	1	4	270	0.00	29.843 
22:50	52.9	52.9	52.9	40	29.2	1	4	270	0.00	29.843 
22:55	52.9	52.9	52.9	40	29.2	1	3	270	0.00	29.843 
23:00	52.8	52.8	52.8	41	29.8	1	4	270	0.00	29.843 
23:05	52.8	52.8	52.8	41	29.8	1	4	270	0.00	29.843 
23:10	52.8	52.8	52.8	42	30.3	2	4	270	0.00	29.843 
23:15	52.8	52.8	52.8	42	30.3	2	5	270	0.00	29.842 
23:20	52.6	52.6	52.6	43	30.7	1	4	270	0.00	29.842 
23:25	52.5	52.5	52.5	44	31.2	1	4	270	0.00	29.842 
23:30	52.5	52.5	52.5	44	31.2	2	4	270	0.00	29.840 
23:35	52.3	52.3	52.3	44	31.0	2	4	270	0.00	29.840 
23:40	52.3	52.3	52.3	44	31.0	2	5	270	0.00	29.840 
23:45	52.2	52.2	52.2	44	31.0	2	9	270	0.00	29.842 
23:50	52.2	52.2	52.2	45	31.5	1	4	270	0.00	29.842 
23:55	52.0	52.0	52.0	46	31.9	0	2	270	0.00	29.842 

CoCoRaHS
IN-AL-39
A2 Web Hosting
Creative Commons License
GoDaddy
search engine by freefind advanced

loaded 2018-11-17 14:50:39 • last modified 2010-11-18 10:43:29
Privacy PolicyDisclaimer
• wx.awcolley.com is powered by PmWiki v.2002016 •
• all content (unless otherwise noted) © 2018 A W Colley